Time;durP1;ratioP1;P1;durP2;ratioP2;P2;SDS_P1;SDS_P2;PMS_P1;PMS_P2;Temp;Humidity;BMP_temperature;BMP_pressure;BME280_temperature;BME280_humidity;BME280_pressure;Samples;Min_cycle;Max_cycle;Signal;HPM_P1;HPM_P2
2021/03/10 00:01:01;;;;;;;1.90;0.80;;;;;;;;;;5035373;28;20056;-56
2021/03/10 00:03:28;;;;;;;4.57;1.00;;;;;;;;;;5017655;28;20073;-56
2021/03/10 00:05:55;;;;;;;3.70;0.87;;;;;;;;;;5035280;28;20100;-57
2021/03/10 00:08:22;;;;;;;3.17;1.10;;;;;;;;;;5017263;28;20022;-56
2021/03/10 00:10:49;;;;;;;10.87;1.23;;;;;;;;;;5034878;28;20538;-56
2021/03/10 00:13:15;;;;;;;5.00;1.00;;;;;;;;;;5034826;28;20419;-56
2021/03/10 00:15:42;;;;;;;3.80;1.13;;;;;;;;;;5034804;28;20037;-56
2021/03/10 00:18:09;;;;;;;1.43;0.73;;;;;;;;;;5017222;28;20034;-56
2021/03/10 00:20:36;;;;;;;6.53;1.40;;;;;;;;;;5034859;28;20129;-56
2021/03/10 00:23:03;;;;;;;3.67;0.87;;;;;;;;;;5034748;28;20460;-56
2021/03/10 00:25:30;;;;;;;3.40;1.20;;;;;;;;;;5034664;28;20029;-56
2021/03/10 00:27:56;;;;;;;5.13;1.13;;;;;;;;;;5035937;28;20096;-56
2021/03/10 00:30:23;;;;;;;3.17;1.23;;;;;;;;;;5034382;28;20025;-56
2021/03/10 00:32:50;;;;;;;2.80;0.83;;;;;;;;;;5034298;28;20056;-56
2021/03/10 00:35:17;;;;;;;6.87;1.10;;;;;;;;;;5034295;28;20525;-56
2021/03/10 00:37:44;;;;;;;2.30;1.00;;;;;;;;;;5034307;28;20404;-56
2021/03/10 00:40:11;;;;;;;3.77;1.23;;;;;;;;;;5034360;28;20024;-56
2021/03/10 00:42:37;;;;;;;3.53;1.47;;;;;;;;;;5034369;28;20025;-56
2021/03/10 00:45:04;;;;;;;3.27;1.27;;;;;;;;;;5034304;28;20029;-56
2021/03/10 00:47:31;;;;;;;2.70;0.90;;;;;;;;;;5034223;28;20014;-56
2021/03/10 00:49:58;;;;;;;5.43;1.20;;;;;;;;;;5034244;28;20472;-56
2021/03/10 00:52:25;;;;;;;2.73;1.10;;;;;;;;;;5034141;28;20025;-56
2021/03/10 00:54:52;;;;;;;3.43;1.20;;;;;;;;;;5016196;28;20072;-56
2021/03/10 00:57:19;;;;;;;2.33;1.10;;;;;;;;;;5034049;28;20073;-56
2021/03/10 00:59:45;;;;;;;2.77;1.03;;;;;;;;;;5034039;28;20445;-56
2021/03/10 01:02:12;;;;;;;2.53;0.97;;;;;;;;;;5033816;28;20037;-56
2021/03/10 01:04:39;;;;;;;4.80;0.97;;;;;;;;;;5033878;28;20029;-56
2021/03/10 01:07:06;;;;;;;13.33;1.50;;;;;;;;;;5033774;28;20045;-56
2021/03/10 01:09:32;;;;;;;4.50;1.33;;;;;;;;;;5033777;28;20100;-56
2021/03/10 01:11:59;;;;;;;3.80;1.63;;;;;;;;;;5033631;28;20026;-56
2021/03/10 01:14:26;;;;;;;4.50;1.43;;;;;;;;;;5033694;28;20030;-56
2021/03/10 01:16:53;;;;;;;7.50;1.80;;;;;;;;;;5033372;28;20093;-56
2021/03/10 01:19:19;;;;;;;11.40;1.90;;;;;;;;;;5033591;28;20025;-56
2021/03/10 01:21:46;;;;;;;7.60;1.77;;;;;;;;;;5033545;28;20452;-56
2021/03/10 01:24:13;;;;;;;13.70;2.10;;;;;;;;;;5033161;28;20036;-56
2021/03/10 01:26:40;;;;;;;8.53;2.10;;;;;;;;;;5033784;28;20499;-56
2021/03/10 01:29:07;;;;;;;8.73;1.80;;;;;;;;;;5034087;28;20097;-56
2021/03/10 01:31:34;;;;;;;8.33;1.83;;;;;;;;;;5033518;28;20030;-56
2021/03/10 01:34:00;;;;;;;6.10;1.80;;;;;;;;;;5033381;28;20029;-56
2021/03/10 01:36:27;;;;;;;3.80;1.60;;;;;;;;;;5033216;28;20037;-56
2021/03/10 01:38:54;;;;;;;3.80;1.57;;;;;;;;;;5033133;28;20055;-56
2021/03/10 01:41:21;;;;;;;5.97;1.93;;;;;;;;;;5033281;28;20121;-56
2021/03/10 01:43:48;;;;;;;10.13;1.70;;;;;;;;;;5033249;28;20040;-56
2021/03/10 01:46:14;;;;;;;12.13;2.87;;;;;;;;;;5033085;28;20064;-56
2021/03/10 01:48:41;;;;;;;4.80;1.90;;;;;;;;;;5033030;28;20490;-56
2021/03/10 01:51:08;;;;;;;9.60;1.50;;;;;;;;;;5033027;28;20484;-56
2021/03/10 01:53:35;;;;;;;12.43;2.63;;;;;;;;;;5032938;28;20033;-56
2021/03/10 01:56:02;;;;;;;11.77;3.23;;;;;;;;;;5032980;28;20041;-56
2021/03/10 01:58:29;;;;;;;6.37;2.27;;;;;;;;;;5032906;28;20432;-56
2021/03/10 02:00:56;;;;;;;3.80;1.37;;;;;;;;;;5033011;28;20112;-56
2021/03/10 02:03:23;;;;;;;7.80;1.70;;;;;;;;;;5033010;28;20032;-56
2021/03/10 02:05:49;;;;;;;5.60;1.70;;;;;;;;;;5032891;28;20380;-56
2021/03/10 02:08:16;;;;;;;3.07;1.40;;;;;;;;;;5033016;28;20303;-56
2021/03/10 02:10:43;;;;;;;2.23;1.30;;;;;;;;;;5032852;28;20022;-56
2021/03/10 02:13:16;;;;;;;1.73;1.10;;;;;;;;;;5032730;28;20040;-56
2021/03/10 02:15:55;;;;;;;3.80;1.10;;;;;;;;;;5032605;28;20037;-56
2021/03/10 02:18:27;;;;;;;2.03;1.20;;;;;;;;;;5032726;28;20487;-56
2021/03/10 02:20:56;;;;;;;5.07;1.80;;;;;;;;;;5032825;28;20431;-56
2021/03/10 02:23:26;;;;;;;7.63;1.43;;;;;;;;;;5032618;28;20037;-56
2021/03/10 02:26:13;;;;;;;2.97;1.33;;;;;;;;;;5032660;28;20025;-56
2021/03/10 02:28:40;;;;;;;11.67;2.20;;;;;;;;;;5012934;28;20515;-56
2021/03/10 02:31:08;;;;;;;8.47;2.23;;;;;;;;;;5012930;28;20026;-56
2021/03/10 02:33:36;;;;;;;7.57;3.13;;;;;;;;;;5012863;28;20395;-56
2021/03/10 02:36:03;;;;;;;5.97;2.23;;;;;;;;;;5012757;28;20121;-56
2021/03/10 02:38:30;;;;;;;6.07;1.70;;;;;;;;;;5016212;28;20033;-56
2021/03/10 02:40:57;;;;;;;4.83;1.70;;;;;;;;;;5016739;28;20030;-56
2021/03/10 02:43:25;;;;;;;7.33;3.30;;;;;;;;;;4999136;28;20034;-56
2021/03/10 02:45:52;;;;;;;5.97;3.23;;;;;;;;;;5016654;28;20026;-56
2021/03/10 02:48:20;;;;;;;8.33;2.37;;;;;;;;;;5016635;28;20490;-56
2021/03/10 02:50:48;;;;;;;5.37;1.57;;;;;;;;;;5016562;28;20026;-56
2021/03/10 02:53:15;;;;;;;5.57;1.63;;;;;;;;;;5016664;28;20062;-56
2021/03/10 02:55:42;;;;;;;5.43;2.00;;;;;;;;;;5016483;28;20050;-56
2021/03/10 02:58:09;;;;;;;3.93;1.67;;;;;;;;;;5016472;28;20032;-56
2021/03/10 03:00:36;;;;;;;6.00;2.10;;;;;;;;;;5016494;28;20033;-56
2021/03/10 03:03:03;;;;;;;6.60;2.53;;;;;;;;;;5016456;28;20315;-56
2021/03/10 03:05:30;;;;;;;7.70;2.87;;;;;;;;;;5016257;28;20049;-56
2021/03/10 03:07:57;;;;;;;7.93;3.03;;;;;;;;;;5016320;28;20503;-56
2021/03/10 03:10:25;;;;;;;4.73;2.40;;;;;;;;;;5016264;28;20081;-56
2021/03/10 03:12:53;;;;;;;6.67;2.60;;;;;;;;;;5016238;28;20026;-55
2021/03/10 03:15:21;;;;;;;3.37;1.87;;;;;;;;;;5016162;28;20022;-56
2021/03/10 03:17:48;;;;;;;4.03;1.93;;;;;;;;;;5016117;28;20065;-56
2021/03/10 03:20:16;;;;;;;4.00;1.97;;;;;;;;;;5016064;28;20022;-56
2021/03/10 03:22:44;;;;;;;5.47;2.10;;;;;;;;;;5016067;28;20030;-56
2021/03/10 03:25:16;;;;;;;6.00;2.33;;;;;;;;;;5015930;28;20049;-56
2021/03/10 03:27:45;;;;;;;4.73;2.47;;;;;;;;;;5030861;28;20060;-56
2021/03/10 03:30:14;;;;;;;4.03;1.93;;;;;;;;;;5035539;28;20053;-56
2021/03/10 03:32:41;;;;;;;7.67;1.90;;;;;;;;;;5035697;28;20033;-55
2021/03/10 03:35:09;;;;;;;9.43;2.13;;;;;;;;;;5035394;28;20467;-56
2021/03/10 03:37:36;;;;;;;3.80;2.00;;;;;;;;;;5035463;28;20108;-55
2021/03/10 03:40:03;;;;;;;3.23;1.50;;;;;;;;;;5035626;28;20080;-56
2021/03/10 03:42:30;;;;;;;5.30;1.63;;;;;;;;;;5035509;28;20029;-56
2021/03/10 03:44:58;;;;;;;4.40;2.00;;;;;;;;;;5035349;28;20026;-55
2021/03/10 03:47:24;;;;;;;7.80;2.93;;;;;;;;;;5034944;28;20026;-56
2021/03/10 03:49:51;;;;;;;5.63;2.63;;;;;;;;;;5035251;28;20029;-55
2021/03/10 03:52:18;;;;;;;4.50;2.30;;;;;;;;;;5035158;28;20036;-56
2021/03/10 03:54:45;;;;;;;9.77;2.67;;;;;;;;;;5035274;28;20031;-55
2021/03/10 03:57:11;;;;;;;3.27;1.73;;;;;;;;;;5034938;28;20037;-55
2021/03/10 03:59:38;;;;;;;4.80;1.43;;;;;;;;;;5035194;28;20069;-56
2021/03/10 04:02:05;;;;;;;3.27;1.57;;;;;;;;;;5035222;28;20022;-55
2021/03/10 04:04:32;;;;;;;2.23;1.23;;;;;;;;;;5035108;28;20029;-55
2021/03/10 04:07:00;;;;;;;3.60;1.30;;;;;;;;;;5034984;28;20096;-55
2021/03/10 04:09:27;;;;;;;6.60;1.70;;;;;;;;;;5035230;28;20018;-55
2021/03/10 04:11:54;;;;;;;7.10;1.67;;;;;;;;;;5034817;28;20109;-55
2021/03/10 04:14:21;;;;;;;7.37;3.83;;;;;;;;;;5034900;28;20376;-55
2021/03/10 04:16:48;;;;;;;7.50;3.20;;;;;;;;;;5034735;28;20060;-55
2021/03/10 04:19:15;;;;;;;6.13;2.60;;;;;;;;;;5034825;28;20388;-55
2021/03/10 04:21:42;;;;;;;6.20;2.07;;;;;;;;;;5034789;28;20025;-55
2021/03/10 04:24:09;;;;;;;3.70;1.60;;;;;;;;;;5034662;28;20033;-55
2021/03/10 04:26:35;;;;;;;4.23;1.70;;;;;;;;;;5035718;28;20049;-56
2021/03/10 04:29:02;;;;;;;2.30;1.30;;;;;;;;;;5034648;28;20026;-55
2021/03/10 04:31:29;;;;;;;3.13;1.23;;;;;;;;;;5034544;28;20377;-55
2021/03/10 04:33:56;;;;;;;5.80;1.37;;;;;;;;;;5034564;28;20022;-55
2021/03/10 04:36:23;;;;;;;6.57;1.37;;;;;;;;;;5034357;28;20056;-55
2021/03/10 04:38:49;;;;;;;2.33;1.13;;;;;;;;;;5034459;28;20048;-55
2021/03/10 04:41:16;;;;;;;3.70;1.30;;;;;;;;;;5034347;28;20021;-55
2021/03/10 04:43:43;;;;;;;1.80;1.23;;;;;;;;;;5034375;28;20081;-55
2021/03/10 04:46:10;;;;;;;2.90;1.30;;;;;;;;;;5034396;28;20035;-55
2021/03/10 04:48:36;;;;;;;5.40;1.50;;;;;;;;;;5034180;28;20018;-55
2021/03/10 04:51:03;;;;;;;6.53;1.73;;;;;;;;;;5034136;28;20365;-55
2021/03/10 04:53:30;;;;;;;4.97;2.27;;;;;;;;;;5034017;28;20357;-55
2021/03/10 04:55:57;;;;;;;10.23;2.20;;;;;;;;;;5033885;28;20041;-55
2021/03/10 04:58:24;;;;;;;1.87;1.27;;;;;;;;;;5033985;28;20021;-55
2021/03/10 05:00:50;;;;;;;4.47;1.43;;;;;;;;;;5033202;28;20068;-55
2021/03/10 05:03:17;;;;;;;4.70;1.57;;;;;;;;;;5033815;28;20029;-55
2021/03/10 05:05:44;;;;;;;3.43;1.53;;;;;;;;;;5033900;28;20514;-55
2021/03/10 05:08:24;;;;;;;2.77;1.40;;;;;;;;;;5033916;28;20499;-55
2021/03/10 05:10:51;;;;;;;2.40;1.30;;;;;;;;;;5033725;28;20030;-55
2021/03/10 05:13:18;;;;;;;2.80;1.33;;;;;;;;;;5033807;28;20017;-55
2021/03/10 05:15:44;;;;;;;3.43;1.33;;;;;;;;;;5033499;28;20028;-55
2021/03/10 05:18:11;;;;;;;4.90;1.40;;;;;;;;;;5033546;28;20029;-55
2021/03/10 05:20:38;;;;;;;2.20;1.33;;;;;;;;;;5033654;28;20033;-55
2021/03/10 05:23:05;;;;;;;1.60;1.10;;;;;;;;;;5033544;28;20037;-55
2021/03/10 05:25:33;;;;;;;3.13;1.10;;;;;;;;;;5033417;28;20025;-55
2021/03/10 05:27:59;;;;;;;3.73;1.20;;;;;;;;;;5034689;28;20132;-55
2021/03/10 05:30:26;;;;;;;2.27;1.00;;;;;;;;;;5033274;28;20034;-55
2021/03/10 05:32:53;;;;;;;4.47;1.30;;;;;;;;;;5033469;28;20045;-55
2021/03/10 05:35:20;;;;;;;3.13;1.20;;;;;;;;;;5033336;28;20108;-55
2021/03/10 05:37:47;;;;;;;2.10;1.10;;;;;;;;;;5033392;28;20111;-55
2021/03/10 05:40:15;;;;;;;2.00;1.00;;;;;;;;;;5033317;28;20029;-55
2021/03/10 05:42:42;;;;;;;2.43;1.27;;;;;;;;;;5033167;28;20029;-55
2021/03/10 05:45:10;;;;;;;4.40;1.50;;;;;;;;;;5033233;28;20026;-55
2021/03/10 05:47:37;;;;;;;3.73;1.30;;;;;;;;;;5033117;28;20103;-55
2021/03/10 05:50:04;;;;;;;1.57;0.90;;;;;;;;;;5015449;28;20025;-55
2021/03/10 05:52:33;;;;;;;8.83;1.40;;;;;;;;;;5033059;28;20013;-55
2021/03/10 05:55:00;;;;;;;5.23;1.50;;;;;;;;;;5032957;28;20112;-55
2021/03/10 05:57:27;;;;;;;3.50;1.53;;;;;;;;;;5032805;28;20033;-55
2021/03/10 05:59:54;;;;;;;5.13;1.57;;;;;;;;;;5033082;28;20072;-55
2021/03/10 06:02:21;;;;;;;3.23;1.63;;;;;;;;;;5032929;28;20027;-55
2021/03/10 06:04:47;;;;;;;2.97;1.23;;;;;;;;;;5032918;28;20052;-55
2021/03/10 06:07:21;;;;;;;4.33;1.63;;;;;;;;;;5032815;28;20104;-55
2021/03/10 06:10:05;;;;;;;3.03;1.43;;;;;;;;;;5032844;28;20030;-56
2021/03/10 06:12:39;;;;;;;2.50;1.30;;;;;;;;;;5014996;28;20484;-55
2021/03/10 06:15:06;;;;;;;2.93;1.40;;;;;;;;;;5032697;28;20026;-55
2021/03/10 06:17:43;;;;;;;7.57;1.57;;;;;;;;;;5032899;28;20444;-55
2021/03/10 06:20:10;;;;;;;5.20;1.40;;;;;;;;;;5032693;28;20499;-55
2021/03/10 06:22:37;;;;;;;4.73;1.87;;;;;;;;;;5032715;28;20080;-55
2021/03/10 06:25:05;;;;;;;3.23;1.50;;;;;;;;;;5032552;28;20032;-55
2021/03/10 06:27:31;;;;;;;2.67;1.40;;;;;;;;;;5033949;28;20057;-55
2021/03/10 06:29:59;;;;;;;2.40;1.43;;;;;;;;;;5032569;28;20026;-55
2021/03/10 06:32:26;;;;;;;3.70;1.20;;;;;;;;;;5032622;28;20092;-55
2021/03/10 06:34:54;;;;;;;2.53;1.27;;;;;;;;;;5032895;28;20097;-55
2021/03/10 06:37:30;;;;;;;6.83;1.57;;;;;;;;;;5032440;28;20389;-55
2021/03/10 06:40:09;;;;;;;3.23;1.70;;;;;;;;;;5032483;28;20021;-55
2021/03/10 06:42:36;;;;;;;4.20;1.40;;;;;;;;;;5032506;28;20263;-55
2021/03/10 06:45:03;;;;;;;4.80;1.40;;;;;;;;;;5032458;28;20257;-55
2021/03/10 06:47:41;;;;;;;2.40;1.13;;;;;;;;;;5032456;28;20258;-55
2021/03/10 06:50:10;;;;;;;5.03;1.40;;;;;;;;;;5032767;28;20087;-55
2021/03/10 06:52:38;;;;;;;3.87;1.60;;;;;;;;;;5032352;28;20342;-55
2021/03/10 06:55:05;;;;;;;4.67;1.40;;;;;;;;;;5032404;28;20258;-55
2021/03/10 06:57:43;;;;;;;3.20;1.50;;;;;;;;;;5032422;28;20271;-55
2021/03/10 07:00:20;;;;;;;2.73;1.20;;;;;;;;;;5032446;28;20263;-55
2021/03/10 07:02:49;;;;;;;4.03;1.33;;;;;;;;;;5032434;28;20266;-55
2021/03/10 07:05:16;;;;;;;2.70;1.50;;;;;;;;;;5032256;28;20278;-55
2021/03/10 07:07:44;;;;;;;4.20;1.20;;;;;;;;;;5032281;28;20255;-55
2021/03/10 07:10:10;;;;;;;3.27;1.20;;;;;;;;;;5032320;28;20262;-55
2021/03/10 07:12:37;;;;;;;4.30;1.20;;;;;;;;;;5032230;28;20273;-55
2021/03/10 07:15:05;;;;;;;6.27;2.97;;;;;;;;;;5032246;28;20317;-55
2021/03/10 07:17:32;;;;;;;4.77;1.60;;;;;;;;;;5032158;28;20270;-55
2021/03/10 07:19:59;;;;;;;5.03;1.53;;;;;;;;;;5032083;28;20251;-55
2021/03/10 07:22:31;;;;;;;3.07;1.10;;;;;;;;;;5032109;28;20283;-55
2021/03/10 07:25:03;;;;;;;4.97;1.20;;;;;;;;;;5035700;28;20338;-55
2021/03/10 07:27:48;;;;;;;6.80;1.10;;;;;;;;;;5037080;28;20788;-55
2021/03/10 07:30:15;;;;;;;2.35;1.42;;;;;;;;;;5035831;28;20251;-55
2021/03/10 07:32:42;;;;;;;1.70;1.10;;;;;;;;;;5035763;28;20021;-55
2021/03/10 07:35:09;;;;;;;3.53;0.97;;;;;;;;;;5035378;28;20338;-55
2021/03/10 07:37:38;;;;;;;2.63;1.40;;;;;;;;;;5035384;28;20687;-55
2021/03/10 07:40:11;;;;;;;4.20;1.37;;;;;;;;;;5035479;28;20254;-55
2021/03/10 07:42:54;;;;;;;2.27;0.73;;;;;;;;;;5035357;28;20764;-55
2021/03/10 07:45:22;;;;;;;3.00;1.20;;;;;;;;;;5035437;28;20309;-55
2021/03/10 07:47:49;;;;;;;2.77;1.20;;;;;;;;;;5035319;28;20263;-55
2021/03/10 07:50:16;;;;;;;2.63;1.33;;;;;;;;;;5035456;28;20309;-55
2021/03/10 07:52:56;;;;;;;2.37;1.00;;;;;;;;;;5035225;28;20286;-55
2021/03/10 07:55:22;;;;;;;2.97;0.97;;;;;;;;;;5035193;28;20283;-55
2021/03/10 07:57:50;;;;;;;2.40;1.10;;;;;;;;;;5035153;28;20266;-55
2021/03/10 08:00:17;;;;;;;2.33;1.13;;;;;;;;;;5035190;28;20797;-55
2021/03/10 08:02:48;;;;;;;4.77;1.27;;;;;;;;;;5035009;28;20267;-55
2021/03/10 08:05:25;;;;;;;1.73;0.97;;;;;;;;;;5035077;28;20259;-55
2021/03/10 08:08:08;;;;;;;2.47;1.03;;;;;;;;;;5034918;28;20258;-56
2021/03/10 08:10:36;;;;;;;3.23;1.53;;;;;;;;;;5035071;28;20255;-55
2021/03/10 08:13:18;;;;;;;2.53;1.03;;;;;;;;;;5034832;28;20247;-55
2021/03/10 08:15:45;;;;;;;1.97;1.00;;;;;;;;;;5034678;28;20278;-56
2021/03/10 08:18:13;;;;;;;3.90;1.30;;;;;;;;;;5034745;28;20269;-55
2021/03/10 08:20:39;;;;;;;4.60;1.20;;;;;;;;;;5034775;28;20250;-55
2021/03/10 08:23:07;;;;;;;6.30;1.23;;;;;;;;;;5034767;28;20343;-55
2021/03/10 08:25:34;;;;;;;1.50;1.00;;;;;;;;;;5034490;28;20247;-55
2021/03/10 08:28:16;;;;;;;1.83;1.30;;;;;;;;;;5035991;28;20314;-55
2021/03/10 08:30:43;;;;;;;4.87;1.00;;;;;;;;;;5034681;28;20246;-55
2021/03/10 08:33:12;;;;;;;2.80;1.00;;;;;;;;;;5034608;28;20258;-55
2021/03/10 08:35:46;;;;;;;2.43;0.93;;;;;;;;;;5034395;28;20306;-55
2021/03/10 08:38:13;;;;;;;4.25;1.20;;;;;;;;;;5034302;28;20267;-55
2021/03/10 08:40:40;;;;;;;3.57;1.20;;;;;;;;;;5034393;28;20025;-55
2021/03/10 08:43:07;;;;;;;3.07;1.40;;;;;;;;;;5034303;28;20362;-55
2021/03/10 08:45:38;;;;;;;3.30;1.27;;;;;;;;;;5034228;28;20247;-55
2021/03/10 08:48:09;;;;;;;2.57;1.13;;;;;;;;;;5034074;28;20333;-55
2021/03/10 08:50:44;;;;;;;3.07;1.40;;;;;;;;;;5034107;28;20247;-55
2021/03/10 08:53:13;;;;;;;4.32;1.98;;;;;;;;;;5034032;28;20622;-55
2021/03/10 08:55:41;;;;;;;1.80;1.20;;;;;;;;;;5034216;28;20116;-55
2021/03/10 08:58:12;;;;;;;4.93;1.73;;;;;;;;;;5016349;28;20807;-55
2021/03/10 09:00:39;;;;;;;4.73;1.80;;;;;;;;;;5034115;28;20614;-55
2021/03/10 09:03:12;;;;;;;3.87;1.47;;;;;;;;;;5033839;28;20291;-55
2021/03/10 09:05:40;;;;;;;5.27;1.53;;;;;;;;;;5033853;28;20665;-55
2021/03/10 09:08:08;;;;;;;4.77;1.57;;;;;;;;;;5033864;28;20290;-55
2021/03/10 09:10:36;;;;;;;3.40;1.27;;;;;;;;;;5033789;28;20837;-55
2021/03/10 09:13:03;;;;;;;2.80;1.60;;;;;;;;;;5033726;28;20262;-55
2021/03/10 09:15:30;;;;;;;2.83;1.50;;;;;;;;;;5033612;28;20753;-55
2021/03/10 09:18:01;;;;;;;2.07;1.17;;;;;;;;;;5033676;28;20267;-55
2021/03/10 09:20:28;;;;;;;2.57;1.20;;;;;;;;;;5033637;28;20321;-55
2021/03/10 09:22:55;;;;;;;6.00;1.30;;;;;;;;;;5033465;28;20269;-55
2021/03/10 09:25:23;;;;;;;3.20;1.10;;;;;;;;;;5033488;28;20744;-55
2021/03/10 09:27:50;;;;;;;1.93;1.10;;;;;;;;;;5034879;28;20378;-55
2021/03/10 09:30:26;;;;;;;3.33;1.07;;;;;;;;;;5033644;28;20246;-55
2021/03/10 09:32:53;;;;;;;1.13;0.70;;;;;;;;;;5033457;28;20255;-55
2021/03/10 09:35:20;;;;;;;1.80;1.20;;;;;;;;;;5033561;28;20608;-55
2021/03/10 09:37:51;;;;;;;1.37;0.90;;;;;;;;;;5033171;28;20262;-55
2021/03/10 09:40:19;;;;;;;3.53;1.10;;;;;;;;;;5033349;28;20294;-55
2021/03/10 09:42:46;;;;;;;3.67;1.10;;;;;;;;;;5033156;28;20259;-55
2021/03/10 09:45:24;;;;;;;1.77;0.87;;;;;;;;;;5032816;28;20342;-55
2021/03/10 09:47:51;;;;;;;6.23;1.23;;;;;;;;;;5033208;28;20313;-55
2021/03/10 09:50:43;;;;;;;3.43;1.20;;;;;;;;;;5033001;28;20247;-55
2021/03/10 09:53:13;;;;;;;2.27;0.83;;;;;;;;;;5029053;28;20305;-55
2021/03/10 09:55:40;;;;;;;4.73;1.30;;;;;;;;;;5032960;28;20289;-54
2021/03/10 09:58:07;;;;;;;3.43;1.10;;;;;;;;;;5032885;28;20613;-55
2021/03/10 10:00:35;;;;;;;2.37;1.27;;;;;;;;;;5032752;28;20255;-55
2021/03/10 10:03:02;;;;;;;1.93;1.00;;;;;;;;;;5032864;28;20599;-54
2021/03/10 10:05:35;;;;;;;1.73;1.07;;;;;;;;;;5032690;28;20308;-55
2021/03/10 10:08:09;;;;;;;1.90;0.93;;;;;;;;;;5032761;28;20266;-55
2021/03/10 10:10:36;;;;;;;2.73;1.10;;;;;;;;;;5032763;28;20242;-55
2021/03/10 10:13:04;;;;;;;1.47;0.87;;;;;;;;;;5032875;28;20247;-54
2021/03/10 10:15:35;;;;;;;2.10;0.90;;;;;;;;;;5032774;28;20313;-55
2021/03/10 10:18:03;;;;;;;2.67;1.40;;;;;;;;;;5032752;28;20734;-55
2021/03/10 10:20:32;;;;;;;2.20;0.93;;;;;;;;;;5032879;28;20733;-55
2021/03/10 10:22:58;;;;;;;3.00;1.10;;;;;;;;;;5032775;28;20262;-55
2021/03/10 10:25:25;;;;;;;2.53;1.23;;;;;;;;;;5032668;28;20251;-54
2021/03/10 10:27:53;;;;;;;3.83;1.10;;;;;;;;;;5034057;28;20385;-55
2021/03/10 10:30:20;;;;;;;3.20;1.03;;;;;;;;;;5032623;28;20246;-54
2021/03/10 10:32:48;;;;;;;2.07;1.20;;;;;;;;;;5032669;28;20764;-55
2021/03/10 10:35:15;;;;;;;2.40;1.20;;;;;;;;;;5032381;28;20250;-55
2021/03/10 10:37:42;;;;;;;2.17;1.43;;;;;;;;;;5032401;28;20262;-55
2021/03/10 10:40:11;;;;;;;1.63;1.13;;;;;;;;;;5032255;28;20247;-54
2021/03/10 10:42:37;;;;;;;2.37;1.20;;;;;;;;;;5032484;28;20665;-54
2021/03/10 10:45:05;;;;;;;2.80;1.40;;;;;;;;;;5032565;28;20251;-54
2021/03/10 10:47:32;;;;;;;3.97;0.97;;;;;;;;;;5032510;28;20280;-54
2021/03/10 10:50:00;;;;;;;1.77;1.07;;;;;;;;;;5015042;28;20346;-55
2021/03/10 10:52:27;;;;;;;2.70;1.10;;;;;;;;;;5032356;28;20262;-54
2021/03/10 10:54:54;;;;;;;1.87;1.07;;;;;;;;;;5032496;28;20598;-55
2021/03/10 10:57:21;;;;;;;2.00;1.20;;;;;;;;;;5032311;28;20402;-55
2021/03/10 10:59:48;;;;;;;3.10;1.20;;;;;;;;;;5036242;28;20713;-55
2021/03/10 11:02:15;;;;;;;3.07;1.13;;;;;;;;;;5036182;28;20258;-54
2021/03/10 11:04:41;;;;;;;1.30;1.00;;;;;;;;;;5036061;28;20254;-54
2021/03/10 11:07:08;;;;;;;1.73;1.03;;;;;;;;;;5036150;28;20713;-55
2021/03/10 11:09:40;;;;;;;1.83;1.03;;;;;;;;;;5036420;28;20259;-55
2021/03/10 11:12:12;;;;;;;2.67;1.00;;;;;;;;;;5036172;28;20254;-54
2021/03/10 11:14:41;;;;;;;2.80;1.00;;;;;;;;;;5036017;28;20251;-54
2021/03/10 11:17:08;;;;;;;1.50;0.90;;;;;;;;;;5035919;28;20365;-54
2021/03/10 11:19:38;;;;;;;2.23;1.10;;;;;;;;;;5035809;28;20263;-54
2021/03/10 11:22:06;;;;;;;1.70;0.90;;;;;;;;;;5035960;28;20811;-54
2021/03/10 11:24:33;;;;;;;4.33;1.30;;;;;;;;;;5035527;28;20760;-55
2021/03/10 11:27:00;;;;;;;1.83;1.27;;;;;;;;;;5035772;28;20259;-54
2021/03/10 11:29:27;;;;;;;1.60;0.90;;;;;;;;;;5035319;28;20374;-54
2021/03/10 11:31:54;;;;;;;7.53;1.33;;;;;;;;;;5035662;28;20616;-54
2021/03/10 11:34:20;;;;;;;1.60;1.10;;;;;;;;;;5035623;28;20601;-55
2021/03/10 11:36:47;;;;;;;2.00;1.20;;;;;;;;;;5035388;28;20369;-54
2021/03/10 11:39:15;;;;;;;1.80;0.97;;;;;;;;;;5035570;28;20354;-55
2021/03/10 11:41:42;;;;;;;1.70;1.00;;;;;;;;;;5035487;28;20259;-54
2021/03/10 11:44:09;;;;;;;3.00;1.10;;;;;;;;;;5035401;28;20760;-54
2021/03/10 11:46:36;;;;;;;2.27;1.07;;;;;;;;;;5035347;28;20254;-55
2021/03/10 11:49:03;;;;;;;4.13;1.20;;;;;;;;;;5035451;28;20255;-55
2021/03/10 11:51:30;;;;;;;6.63;1.30;;;;;;;;;;5035595;28;20299;-55
2021/03/10 11:53:57;;;;;;;5.03;1.13;;;;;;;;;;5035143;28;20251;-54
2021/03/10 11:56:23;;;;;;;6.47;1.63;;;;;;;;;;5034929;28;20282;-54
2021/03/10 11:58:50;;;;;;;3.30;1.10;;;;;;;;;;5035154;28;20257;-55
2021/03/10 12:01:17;;;;;;;2.07;1.13;;;;;;;;;;5035185;28;20268;-54
2021/03/10 12:03:45;;;;;;;2.70;1.20;;;;;;;;;;5035159;28;20246;-55
2021/03/10 12:06:12;;;;;;;2.47;1.33;;;;;;;;;;5035081;28;20254;-54
2021/03/10 12:08:39;;;;;;;1.77;1.30;;;;;;;;;;5034621;28;20247;-54
2021/03/10 12:11:06;;;;;;;2.83;1.23;;;;;;;;;;5035045;28;20258;-54
2021/03/10 12:13:32;;;;;;;4.90;1.17;;;;;;;;;;5034917;28;20246;-54
2021/03/10 12:15:59;;;;;;;2.07;1.37;;;;;;;;;;5034825;28;20841;-54
2021/03/10 12:18:26;;;;;;;2.47;0.90;;;;;;;;;;5034774;28;20265;-54
2021/03/10 12:20:53;;;;;;;1.90;1.03;;;;;;;;;;5034786;28;20309;-54
2021/03/10 12:23:20;;;;;;;5.53;1.40;;;;;;;;;;5034585;28;20278;-54
2021/03/10 12:25:47;;;;;;;3.23;1.07;;;;;;;;;;5034480;28;20242;-54
2021/03/10 12:28:14;;;;;;;2.93;1.53;;;;;;;;;;5035335;28;20281;-55
2021/03/10 12:30:41;;;;;;;2.57;1.50;;;;;;;;;;5034600;28;20262;-54
2021/03/10 12:33:08;;;;;;;4.23;1.30;;;;;;;;;;5034545;28;20306;-54
2021/03/10 12:35:34;;;;;;;4.10;1.33;;;;;;;;;;5034470;28;20273;-54
2021/03/10 12:38:01;;;;;;;3.47;1.30;;;;;;;;;;5034526;28;20262;-54
2021/03/10 12:40:28;;;;;;;4.33;1.40;;;;;;;;;;5034420;28;20668;-54
2021/03/10 12:42:55;;;;;;;4.80;1.63;;;;;;;;;;5034273;28;20618;-54
2021/03/10 12:45:22;;;;;;;5.30;1.20;;;;;;;;;;5034278;28;20254;-54
2021/03/10 12:47:49;;;;;;;2.30;1.20;;;;;;;;;;5034259;28;20691;-54
2021/03/10 12:50:16;;;;;;;5.70;1.40;;;;;;;;;;5034092;28;20246;-54
2021/03/10 12:52:44;;;;;;;2.60;1.10;;;;;;;;;;5034100;28;20595;-54
2021/03/10 12:55:11;;;;;;;3.10;1.63;;;;;;;;;;5034026;28;20258;-53
2021/03/10 12:57:38;;;;;;;3.00;1.50;;;;;;;;;;5034167;28;20346;-54
2021/03/10 13:00:05;;;;;;;8.57;1.37;;;;;;;;;;5034111;28;20259;-53
2021/03/10 13:02:33;;;;;;;3.10;1.43;;;;;;;;;;5033917;28;20259;-54
2021/03/10 13:05:00;;;;;;;3.53;1.77;;;;;;;;;;5033860;28;20662;-54
2021/03/10 13:07:27;;;;;;;2.77;1.37;;;;;;;;;;5033792;28;20330;-54
2021/03/10 13:09:54;;;;;;;6.43;1.43;;;;;;;;;;5033931;28;20250;-53
2021/03/10 13:12:21;;;;;;;2.77;1.30;;;;;;;;;;5033730;28;20270;-54
2021/03/10 13:14:47;;;;;;;5.07;1.57;;;;;;;;;;5016001;28;20744;-54
2021/03/10 13:17:15;;;;;;;4.27;1.33;;;;;;;;;;5033663;28;20290;-54
2021/03/10 13:19:42;;;;;;;7.60;1.70;;;;;;;;;;5033590;28;20288;-53
2021/03/10 13:22:09;;;;;;;5.83;1.60;;;;;;;;;;5032974;28;20266;-54
2021/03/10 13:24:36;;;;;;;11.80;1.70;;;;;;;;;;5033513;28;20622;-54
2021/03/10 13:27:03;;;;;;;5.30;2.30;;;;;;;;;;5033399;28;20254;-54
2021/03/10 13:29:29;;;;;;;6.30;2.53;;;;;;;;;;5034839;28;20302;-54
2021/03/10 13:31:56;;;;;;;6.93;2.50;;;;;;;;;;5033442;28;20326;-54
2021/03/10 13:34:23;;;;;;;8.70;3.73;;;;;;;;;;5033449;28;20266;-54
2021/03/10 13:36:50;;;;;;;14.83;5.20;;;;;;;;;;5033325;28;20282;-55
2021/03/10 13:39:17;;;;;;;29.33;7.83;;;;;;;;;;5033304;28;20265;-55
2021/03/10 13:41:43;;;;;;;12.17;6.93;;;;;;;;;;5033350;28;20293;-55
2021/03/10 13:44:10;;;;;;;15.87;6.13;;;;;;;;;;5033138;28;20769;-55
2021/03/10 13:46:37;;;;;;;11.30;5.80;;;;;;;;;;5033048;28;20284;-55
2021/03/10 13:49:04;;;;;;;17.50;5.23;;;;;;;;;;5033282;28;20253;-55
2021/03/10 13:51:31;;;;;;;10.73;3.97;;;;;;;;;;5033133;28;20255;-55
2021/03/10 13:53:58;;;;;;;5.30;2.97;;;;;;;;;;5033118;28;20602;-55
2021/03/10 13:56:25;;;;;;;7.67;2.83;;;;;;;;;;5032870;28;20289;-55
2021/03/10 13:58:52;;;;;;;5.10;2.10;;;;;;;;;;5033418;28;20251;-55
2021/03/10 14:01:19;;;;;;;6.33;2.10;;;;;;;;;;5033045;28;20338;-55
2021/03/10 14:03:46;;;;;;;4.13;2.07;;;;;;;;;;5032874;28;20247;-55
2021/03/10 14:06:12;;;;;;;3.93;2.07;;;;;;;;;;5032913;28;20321;-55
2021/03/10 14:08:39;;;;;;;5.00;1.67;;;;;;;;;;5032772;28;20255;-55
2021/03/10 14:11:07;;;;;;;3.50;1.67;;;;;;;;;;5032927;28;20343;-55
2021/03/10 14:13:33;;;;;;;6.20;1.73;;;;;;;;;;5032910;28;20018;-55
2021/03/10 14:16:00;;;;;;;7.37;2.07;;;;;;;;;;5032759;28;20281;-55
2021/03/10 14:18:27;;;;;;;7.90;1.90;;;;;;;;;;5032821;28;20685;-55
2021/03/10 14:20:54;;;;;;;6.40;2.07;;;;;;;;;;5032804;28;20104;-55
2021/03/10 14:23:21;;;;;;;8.07;2.10;;;;;;;;;;5032834;28;20022;-55
2021/03/10 14:25:48;;;;;;;9.27;2.43;;;;;;;;;;5032659;28;20033;-56
2021/03/10 14:28:15;;;;;;;3.43;1.60;;;;;;;;;;5033861;28;20510;-56
2021/03/10 14:30:42;;;;;;;3.20;1.50;;;;;;;;;;5032650;28;20376;-55
2021/03/10 14:33:09;;;;;;;5.37;1.50;;;;;;;;;;5035603;28;20265;-55
2021/03/10 14:35:36;;;;;;;4.67;1.63;;;;;;;;;;5036677;28;20036;-55
2021/03/10 14:38:03;;;;;;;4.70;2.00;;;;;;;;;;5036792;28;20080;-56
2021/03/10 14:40:29;;;;;;;5.40;1.87;;;;;;;;;;5036693;28;20017;-56
2021/03/10 14:42:56;;;;;;;3.43;1.67;;;;;;;;;;5036706;28;20395;-56
2021/03/10 14:45:23;;;;;;;5.57;1.73;;;;;;;;;;5018734;28;20032;-56
2021/03/10 14:47:50;;;;;;;4.97;1.93;;;;;;;;;;5036492;28;20018;-56